This is the latest recevied weather packets stored in our database for station/object E27IHO-13. If no packets are shown the sender has not sent any weather packets the latest 10 day(s).
| Time | Temp. | Humidity | Pressure | Rain* | Wind** | Luminosity | Snow |
|---|---|---|---|---|---|---|---|
| 1777264596 | 36.11° C | 51% | 1010 hPa | - | - | 0 W/m² | - |
| 1777264274 | 35.56° C | 51% | 1010 hPa | - | - | 0 W/m² | - |
| 1777263951 | 36.67° C | 50% | 1010 hPa | - | - | 0 W/m² | - |
| 1777263630 | 36.67° C | 47% | 1010 hPa | - | - | 0 W/m² | - |
| 1777263308 | 37.22° C | 46% | 1010 hPa | - | - | 0 W/m² | - |
| 1777262986 | 37.22° C | 46% | 1010 hPa | - | - | 0 W/m² | - |
| 1777262663 | 36.67° C | 48% | 1010 hPa | - | - | 0 W/m² | - |
| 1777262341 | 36.67° C | 47% | 1010 hPa | - | - | 0 W/m² | - |
| 1777262019 | 36.11° C | 49% | 1010 hPa | - | - | 0 W/m² | - |
| 1777261698 | 36.67° C | 48% | 1010 hPa | - | - | 0 W/m² | - |
| 1777261375 | 36.11° C | 50% | 1010 hPa | - | - | 0 W/m² | - |
| 1777251190 | 31.67° C | 68% | 1011 hPa | - | - | 0 W/m² | - |
| 1777250868 | 31.67° C | 69% | 1010 hPa | - | - | 0 W/m² | - |
| 1777250546 | 31.67° C | 69% | 1010 hPa | - | - | 0 W/m² | - |
| 1777250224 | 31.11° C | 70% | 1010 hPa | - | - | 0 W/m² | - |
| 1777249903 | 31.11° C | 71% | 1010 hPa | - | - | 0 W/m² | - |
| 1777249580 | 30.56° C | 72% | 1010 hPa | - | - | 0 W/m² | - |
| 1777249258 | 30.56° C | 73% | 1010 hPa | - | - | 0 W/m² | - |
| 1777249002 | 30.56° C | 74% | 1010 hPa | - | - | 0 W/m² | - |
| 1777248680 | 30° C | 75% | 1010 hPa | - | - | 0 W/m² | - |
| 1777248357 | 30° C | 76% | 1010 hPa | - | - | 0 W/m² | - |
| 1777248036 | 29.44° C | 77% | 1010 hPa | - | - | 0 W/m² | - |
| 1777247713 | 28.89° C | 78% | 1010 hPa | - | - | 0 W/m² | - |
| 1777247391 | 28.89° C | 80% | 1010 hPa | - | - | 0 W/m² | - |
| 1777247069 | 29.44° C | 77% | 1009 hPa | - | - | 0 W/m² | - |
* Rain since midnight (hover to see other rain measurements)
** Current wind speed in m/s (hover to see current wind gust speed)